Time;durP1;ratioP1;P1;durP2;ratioP2;P2;SDS_P1;SDS_P2;PMS_P1;PMS_P2;Temp;Humidity;BMP_temperature;BMP_pressure;BME280_temperature;BME280_humidity;BME280_pressure;Samples;Min_cycle;Max_cycle;Signal;HPM_P1;HPM_P2
2022/07/01 00:02:19;;;;;;;11.10;7.80;;;18.00;1.00;;;18.75;98.47;99574.88;5062423;27;119619;-77
2022/07/01 00:04:48;;;;;;;9.60;7.82;;;18.00;1.00;;;18.75;98.94;99568.59;5060750;27;119487;-77
2022/07/01 00:07:48;;;;;;;10.65;8.80;;;18.00;1.00;;;18.74;98.90;99577.97;5053916;27;130250;-77
2022/07/01 00:10:17;;;;;;;9.77;8.02;;;18.00;1.00;;;18.72;99.82;99574.81;5060131;27;129722;-77
2022/07/01 00:12:46;;;;;;;9.95;8.30;;;18.00;1.00;;;18.69;100.00;99577.13;5062306;27;119202;-77
2022/07/01 00:15:16;;;;;;;11.63;8.00;;;18.00;1.00;;;18.61;100.00;99580.91;5062614;27;119336;-77
2022/07/01 00:17:45;;;;;;;11.20;7.90;;;17.90;1.00;;;18.50;100.00;99580.69;5045146;27;129613;-78
2022/07/01 00:20:14;;;;;;;10.43;8.00;;;17.80;1.00;;;18.34;100.00;99582.75;5060437;27;130210;-77
2022/07/01 00:22:43;;;;;;;11.10;8.13;;;17.70;1.00;;;18.29;100.00;99581.06;5062144;27;121957;-77
2022/07/01 00:25:11;;;;;;;12.45;8.70;;;17.60;1.00;;;18.21;100.00;99579.31;5063206;27;121017;-76
2022/07/01 00:27:40;;;;;;;10.57;8.20;;;17.60;1.00;;;18.21;100.00;99582.06;5045524;27;129403;-76
2022/07/01 00:30:10;;;;;;;13.13;7.78;;;17.60;1.00;;;18.25;100.00;99579.41;5047502;27;130015;-76
2022/07/01 00:32:39;;;;;;;11.18;8.88;;;17.60;1.00;;;18.22;100.00;99580.13;5061892;27;119926;-76
2022/07/01 00:35:10;;;;;;;12.80;9.63;;;17.60;1.00;;;18.19;100.00;99580.84;5059854;27;119667;-76
2022/07/01 00:37:40;;;;;;;11.18;8.45;;;17.50;1.00;;;18.15;100.00;99578.00;5061702;27;129649;-77
2022/07/01 00:40:10;;;;;;;10.52;9.25;;;17.50;1.00;;;18.11;100.00;99577.16;5061694;27;129631;-76
2022/07/01 00:42:43;;;;;;;10.45;9.05;;;17.50;1.00;;;18.12;100.00;99575.97;5060399;27;120870;-76
2022/07/01 00:45:14;;;;;;;13.05;9.20;;;17.40;1.00;;;18.20;100.00;99582.41;5060009;27;119785;-77
2022/07/01 00:47:44;;;;;;;13.38;9.38;;;17.40;1.00;;;18.18;100.00;99584.75;5058390;27;129888;-76
2022/07/01 00:50:16;;;;;;;11.13;8.93;;;17.40;1.00;;;18.15;100.00;99583.50;5063247;27;130568;-76
2022/07/01 00:52:46;;;;;;;10.38;8.82;;;17.40;1.00;;;18.09;100.00;99582.19;5063406;27;119652;-77
2022/07/01 00:55:15;;;;;;;11.02;9.45;;;17.40;1.00;;;18.04;100.00;99577.00;5063618;27;120028;-77
2022/07/01 00:57:45;;;;;;;11.57;9.57;;;17.40;1.00;;;18.00;100.00;99574.19;5063542;27;130331;-77
2022/07/01 01:00:17;;;;;;;12.82;9.80;;;17.40;1.00;;;18.01;100.00;99574.97;5064837;27;128604;-76
2022/07/01 01:02:46;;;;;;;12.38;9.50;;;17.40;1.00;;;18.03;100.00;99567.16;5063612;27;119829;-76
2022/07/01 01:05:17;;;;;;;11.15;9.95;;;17.40;1.00;;;18.04;100.00;99568.75;5063769;27;120389;-76
2022/07/01 01:07:46;;;;;;;12.40;9.57;;;17.40;1.00;;;17.96;100.00;99563.09;5063056;27;130646;-77
2022/07/01 01:10:16;;;;;;;13.75;10.45;;;17.40;1.00;;;17.94;100.00;99559.94;5064951;27;128281;-78
2022/07/01 01:12:44;;;;;;;14.55;9.73;;;17.30;1.00;;;17.91;100.00;99563.41;5061749;27;122550;-77
2022/07/01 01:15:19;;;;;;;11.38;9.60;;;17.30;1.00;;;17.89;100.00;99557.47;5065047;27;121999;-78
2022/07/01 01:17:49;;;;;;;12.15;10.05;;;17.30;1.00;;;17.87;100.00;99559.78;5061872;27;130586;-78
2022/07/01 01:20:19;;;;;;;10.73;9.50;;;17.20;1.00;;;17.82;100.00;99571.00;5063362;27;130030;-78
2022/07/01 01:22:50;;;;;;;11.73;10.25;;;17.20;1.00;;;17.79;100.00;99566.22;5063313;27;119997;-78
2022/07/01 01:25:19;;;;;;;11.57;9.80;;;17.10;1.00;;;17.71;100.00;99561.75;5062982;27;119377;-76
2022/07/01 01:27:48;;;;;;;12.20;10.48;;;17.10;1.00;;;17.68;100.00;99556.97;5061217;27;130024;-76
2022/07/01 01:30:16;;;;;;;14.95;9.77;;;17.00;1.00;;;17.64;100.00;99561.56;5063147;27;129825;-76
2022/07/01 01:32:45;;;;;;;11.48;10.02;;;17.00;1.00;;;17.58;100.00;99564.59;5061632;27;120353;-76
2022/07/01 01:35:14;;;;;;;13.35;10.25;;;17.00;1.00;;;17.53;100.00;99562.16;5064854;27;119309;-77
2022/07/01 01:37:43;;;;;;;12.18;9.75;;;17.00;1.00;;;17.52;100.00;99555.06;5061537;27;131003;-77
2022/07/01 01:40:14;;;;;;;13.13;10.45;;;16.90;1.00;;;17.50;100.00;99559.31;5062462;27;130074;-78
2022/07/01 01:42:44;;;;;;;16.58;11.05;;;16.90;1.00;;;17.46;100.00;99559.22;5064959;27;118992;-78
2022/07/01 01:45:13;;;;;;;12.18;10.27;;;16.90;4.90;;;17.45;100.00;99563.13;5047701;27;119018;-77
2022/07/01 01:47:42;;;;;;;12.90;10.43;;;16.90;20.40;;;17.51;100.00;99558.94;5062390;27;129763;-77
2022/07/01 01:50:15;;;;;;;13.32;10.30;;;16.80;19.00;;;17.61;100.00;99555.66;5062346;27;130211;-77
2022/07/01 01:52:44;;;;;;;13.73;10.40;;;16.80;16.80;;;17.63;100.00;99566.28;5062670;27;119321;-76
2022/07/01 01:55:13;;;;;;;14.27;10.40;;;16.80;7.00;;;17.58;100.00;99566.56;5065185;27;119159;-77
2022/07/01 01:57:42;;;;;;;11.95;10.30;;;16.80;6.30;;;17.56;100.00;99561.44;5062495;27;130420;-77
2022/07/01 02:00:12;;;;;;;14.63;10.60;;;16.80;9.20;;;17.59;100.00;99568.94;5061289;27;130273;-78
2022/07/01 02:02:41;;;;;;;12.77;10.35;;;16.80;14.20;;;17.60;100.00;99573.25;5061062;27;122310;-78
2022/07/01 02:05:13;;;;;;;11.32;10.07;;;16.80;18.20;;;17.57;100.00;99568.50;5062467;27;122143;-77
2022/07/01 02:07:42;;;;;;;14.43;9.95;;;16.90;15.10;;;17.51;100.00;99564.44;5062146;27;130430;-77
2022/07/01 02:10:11;;;;;;;13.23;10.35;;;16.90;3.50;;;17.57;100.00;99573.19;5064106;27;129360;-77
2022/07/01 02:12:40;;;;;;;13.27;11.20;;;16.90;1.00;;;17.58;100.00;99564.59;5061324;27;119618;-78
2022/07/01 02:15:11;;;;;;;14.15;11.07;;;16.90;1.00;;;17.63;100.00;99569.03;5062686;27;119639;-77
2022/07/01 02:17:39;;;;;;;15.10;10.80;;;16.90;1.00;;;17.70;100.00;99574.69;5060934;27;129593;-77
2022/07/01 02:20:14;;;;;;;14.15;9.45;;;16.90;1.00;;;17.81;100.00;99577.66;5063568;27;130198;-78
2022/07/01 02:22:43;;;;;;;11.82;9.60;;;16.90;1.00;;;17.94;100.00;99581.13;5063044;27;120355;-78
2022/07/01 02:25:12;;;;;;;13.40;10.93;;;16.90;1.00;;;17.98;100.00;99578.44;5064469;27;118244;-78
2022/07/01 02:27:42;;;;;;;12.98;10.35;;;17.00;1.00;;;17.97;100.00;99580.41;5063023;27;129511;-79
2022/07/01 02:30:12;;;;;;;13.57;10.10;;;17.00;1.00;;;17.99;100.00;99585.53;5061810;27;129706;-78
2022/07/01 02:32:40;;;;;;;15.68;10.43;;;17.00;1.00;;;18.01;100.00;99581.25;5062468;27;119317;-78
2022/07/01 02:35:10;;;;;;;17.88;10.80;;;17.00;1.00;;;18.16;100.00;99574.13;5062040;27;119383;-77
2022/07/01 02:37:39;;;;;;;12.80;10.65;;;17.20;1.00;;;18.29;100.00;99561.03;5063695;27;129467;-77
2022/07/01 02:40:09;;;;;;;16.63;11.23;;;17.20;1.00;;;18.40;100.00;99570.31;5062150;27;129901;-78
2022/07/01 02:42:37;;;;;;;14.90;11.10;;;17.20;1.00;;;18.48;100.00;99576.69;5064560;27;118005;-77
2022/07/01 02:45:09;;;;;;;13.73;10.45;;;17.30;1.00;;;18.61;100.00;99583.63;5062072;27;119407;-76
2022/07/01 02:47:40;;;;;;;15.93;11.07;;;17.40;1.00;;;18.65;100.00;99587.25;5061873;27;129860;-77
2022/07/01 02:50:11;;;;;;;15.70;9.82;;;17.40;1.00;;;18.62;100.00;99590.75;5061749;27;130087;-78
2022/07/01 02:52:41;;;;;;;22.35;11.20;;;17.40;1.00;;;18.64;100.00;99588.41;5061384;27;122865;-76
2022/07/01 02:55:12;;;;;;;20.90;11.40;;;17.50;1.00;;;18.77;100.00;99593.75;5062088;27;122956;-76
2022/07/01 02:57:42;;;;;;;14.57;10.55;;;17.60;1.00;;;18.96;99.68;99593.72;5061958;27;129902;-77
2022/07/01 03:00:15;;;;;;;18.40;10.75;;;17.80;1.00;;;19.30;98.45;99602.16;5061460;27;131100;-77
2022/07/01 03:02:43;;;;;;;17.58;10.38;;;18.00;1.00;;;19.45;96.88;99599.66;5061506;27;119443;-77
2022/07/01 03:05:12;;;;;;;18.65;9.88;;;18.10;1.00;;;19.85;96.04;99595.56;5061386;27;119658;-77
2022/07/01 03:07:42;;;;;;;12.82;8.32;;;18.40;1.00;;;20.97;92.60;99603.22;5061195;27;130599;-77
2022/07/01 03:10:11;;;;;;;13.40;8.07;;;19.30;1.00;;;22.29;84.78;99607.31;5063452;27;128591;-77
2022/07/01 03:12:40;;;;;;;10.43;7.40;;;20.20;1.00;;;23.55;76.98;99608.38;5062507;27;118653;-77
2022/07/01 03:15:13;;;;;;;13.63;7.38;;;21.00;99.90;;;24.79;70.14;99620.69;5062411;27;119096;-77
2022/07/01 03:17:43;;;;;;;12.05;7.35;;;21.70;99.90;;;25.96;64.25;99634.06;5062415;27;130252;-77
2022/07/01 03:20:15;;;;;;;8.57;6.88;;;22.40;99.90;;;26.32;61.45;99636.50;5066355;27;130626;-77
2022/07/01 03:22:46;;;;;;;8.25;7.05;;;22.30;99.90;;;26.80;59.86;99629.94;5065460;27;118990;-77
2022/07/01 03:25:15;;;;;;;9.05;6.80;;;22.50;99.90;;;27.48;57.63;99632.91;5064839;27;119810;-77
2022/07/01 03:27:47;;;;;;;9.15;6.75;;;22.90;99.90;;;27.52;56.42;99628.84;5067181;27;129852;-78
2022/07/01 03:30:18;;;;;;;7.88;6.68;;;22.90;99.90;;;26.83;58.00;99629.09;5064173;27;128405;-77
2022/07/01 03:32:47;;;;;;;8.88;7.10;;;22.30;99.90;;;26.13;60.31;99626.75;5075994;27;120026;-80
2022/07/01 03:38:02;;;;;;;9.45;8.32;;;21.40;99.90;;;24.98;64.47;99639.63;5071181;27;129669;-78
2022/07/01 03:40:30;;;;;;;11.63;8.35;;;21.20;99.90;;;24.58;66.12;99633.50;5063448;27;129985;-77
2022/07/01 03:43:00;;;;;;;10.73;8.85;;;21.10;99.90;;;24.05;68.50;99630.47;5062343;27;122934;-77
2022/07/01 03:45:31;;;;;;;11.88;8.85;;;21.00;99.90;;;23.62;69.64;99622.22;5063319;27;121718;-77
2022/07/01 03:48:00;;;;;;;11.07;8.55;;;20.90;99.90;;;23.22;72.20;99624.22;5061268;27;130165;-78
2022/07/01 03:50:29;;;;;;;10.10;8.40;;;20.70;99.90;;;23.08;72.91;99624.16;5063640;27;128501;-80
2022/07/01 03:55:44;;;;;;;11.65;8.88;;;20.90;99.90;;;23.10;74.37;99627.34;5063316;27;119142;-77
2022/07/01 03:58:12;;;;;;;12.25;9.23;;;21.10;99.90;;;23.10;73.47;99632.91;5061464;27;129907;-78
2022/07/01 04:00:43;;;;;;;12.88;9.80;;;21.10;99.90;;;22.96;74.22;99628.88;5061106;27;130814;-78
2022/07/01 04:03:11;;;;;;;11.63;9.25;;;21.10;99.90;;;22.92;74.58;99628.09;5060594;27;119294;-76
2022/07/01 04:05:40;;;;;;;13.18;9.80;;;21.10;99.90;;;22.83;74.93;99624.09;5057255;27;119155;-77
2022/07/01 04:08:11;;;;;;;10.55;8.80;;;21.10;99.90;;;22.80;76.25;99620.16;5057536;27;130360;-79
2022/07/01 04:10:41;;;;;;;12.20;8.82;;;21.10;99.90;;;22.96;74.39;99623.34;5042855;27;129886;-78
2022/07/01 04:13:10;;;;;;;11.30;8.63;;;21.30;99.90;;;23.10;74.02;99613.53;5059068;27;119125;-78
2022/07/01 04:15:38;;;;;;;15.45;8.98;;;21.50;99.90;;;23.09;73.94;99621.03;5065182;27;119618;-78
2022/07/01 04:18:08;;;;;;;10.57;8.38;;;21.50;99.90;;;23.09;74.04;99625.75;5064156;27;128835;-77
2022/07/01 04:20:37;;;;;;;10.43;8.75;;;21.50;99.90;;;23.17;74.21;99629.34;5059308;27;129916;-78
2022/07/01 04:23:04;;;;;;;11.77;8.48;;;21.60;99.90;;;23.21;74.75;99632.91;5043715;27;118565;-78
2022/07/01 04:25:33;;;;;;;12.52;8.77;;;21.70;99.90;;;23.21;73.84;99622.63;5066534;27;119132;-76
2022/07/01 04:28:03;;;;;;;12.68;8.90;;;21.80;99.90;;;23.19;74.38;99630.53;5054744;27;130675;-77
2022/07/01 04:30:32;;;;;;;14.65;9.73;;;21.80;99.90;;;23.32;73.78;99626.19;5059358;27;131015;-79
2022/07/01 04:33:00;;;;;;;12.23;8.52;;;21.90;99.90;;;23.52;73.29;99626.56;5057316;27;122647;-78
2022/07/01 04:35:30;;;;;;;12.48;8.10;;;22.10;99.90;;;23.66;71.72;99631.31;5059692;27;121285;-79
2022/07/01 04:37:58;;;;;;;9.90;8.75;;;22.30;99.90;;;23.77;72.48;99624.97;5056494;27;130207;-81
2022/07/01 04:40:27;;;;;;;14.93;8.85;;;22.40;99.90;;;23.94;70.84;99638.03;5059426;27;129998;-77
2022/07/01 04:42:54;;;;;;;10.88;7.65;;;22.60;99.90;;;24.12;71.33;99634.41;5053349;27;118417;-77
2022/07/01 04:45:23;;;;;;;11.50;7.78;;;22.70;99.90;;;24.20;70.62;99638.78;5039514;27;119189;-78
2022/07/01 04:47:52;;;;;;;18.45;7.72;;;22.90;99.90;;;24.40;69.28;99639.88;5038171;27;129466;-77
2022/07/01 04:50:20;;;;;;;13.88;8.48;;;23.00;99.90;;;24.49;69.06;99639.44;5038901;27;129424;-78
2022/07/01 04:52:50;;;;;;;17.05;8.73;;;23.00;99.90;;;24.56;67.89;99646.97;5042578;27;118574;-77
2022/07/01 04:55:19;;;;;;;9.85;7.22;;;23.00;99.90;;;24.73;66.66;99646.09;5042510;27;119243;-79
2022/07/01 04:57:47;;;;;;;7.82;6.15;;;23.20;99.90;;;24.93;66.68;99653.91;5044830;27;129825;-78
2022/07/01 05:00:17;;;;;;;13.07;7.05;;;23.40;99.90;;;25.16;64.99;99655.38;5053541;27;130807;-79
2022/07/01 05:02:46;;;;;;;11.35;6.28;;;23.30;99.90;;;25.33;61.22;99653.69;5041323;27;119591;-78
2022/07/01 05:05:14;;;;;;;17.15;6.82;;;23.40;99.90;;;25.51;59.85;99661.88;5041646;27;119612;-78
2022/07/01 05:07:43;;;;;;;12.35;6.80;;;23.50;99.90;;;25.64;57.99;99668.53;5041334;27;129319;-78
2022/07/01 05:10:14;;;;;;;9.57;5.55;;;23.50;99.90;;;25.59;57.50;99666.19;5039203;27;129553;-79
2022/07/01 05:12:43;;;;;;;9.25;5.90;;;23.30;99.90;;;25.68;57.40;99662.91;5040161;27;119521;-81
2022/07/01 05:15:12;;;;;;;14.52;6.82;;;23.40;99.90;;;25.84;57.54;99661.19;5025620;27;118137;-78
2022/07/01 05:23:13;;;;;;;8.43;5.82;;;24.20;99.90;;;26.11;55.68;99652.19;5039321;27;121323;-81
2022/07/01 05:25:43;;;;;;;9.77;6.07;;;24.20;99.90;;;26.30;56.28;99652.78;5039417;27;121771;-81
2022/07/01 05:28:12;;;;;;;10.60;6.25;;;24.20;99.90;;;26.34;56.32;99647.97;5039537;27;130550;-79
2022/07/01 05:30:40;;;;;;;10.40;5.63;;;24.10;99.90;;;26.52;55.52;99647.75;5041792;27;128814;-80
2022/07/01 05:33:09;;;;;;;12.75;5.97;;;24.10;99.90;;;26.61;54.11;99650.03;5040082;27;119603;-81
2022/07/01 05:35:38;;;;;;;10.63;5.45;;;24.10;99.90;;;26.68;53.86;99645.19;5043037;27;119551;-80
2022/07/01 05:38:07;;;;;;;8.65;4.65;;;24.30;99.90;;;26.83;51.86;99648.59;5044392;27;129880;-77
2022/07/01 05:40:35;;;;;;;9.82;5.30;;;24.60;99.90;;;26.58;51.87;99639.75;5043993;27;130016;-79
2022/07/01 05:43:05;;;;;;;10.35;4.63;;;24.50;99.90;;;26.87;52.77;99638.16;5044088;27;119664;-82
2022/07/01 05:45:34;;;;;;;7.32;4.32;;;24.80;99.90;;;27.07;52.52;99635.50;5043292;27;119715;-77
2022/07/01 05:48:02;;;;;;;9.02;4.43;;;25.00;99.90;;;27.11;51.27;99635.44;5041516;27;130316;-78
2022/07/01 05:50:31;;;;;;;12.30;4.93;;;25.10;99.90;;;27.01;51.83;99633.63;5042345;27;129230;-80
2022/07/01 05:52:59;;;;;;;14.20;5.07;;;25.00;99.90;;;26.95;51.65;99635.28;5042969;27;120157;-79
2022/07/01 05:55:28;;;;;;;13.63;4.13;;;24.80;99.90;;;27.17;50.22;99633.75;5043221;27;119611;-80
2022/07/01 05:57:56;;;;;;;10.57;4.10;;;24.90;99.90;;;27.54;49.33;99622.84;5043214;27;129934;-79
2022/07/01 06:00:26;;;;;;;5.30;4.18;;;25.30;99.90;;;27.65;49.38;99631.03;5044623;27;129093;-82
2022/07/01 06:02:55;;;;;;;7.30;4.32;;;25.20;99.90;;;27.67;49.57;99634.16;5045057;27;119188;-80
2022/07/01 06:05:23;;;;;;;8.10;4.00;;;25.30;99.90;;;27.69;47.71;99632.53;5042880;27;119492;-80
2022/07/01 06:07:52;;;;;;;7.38;3.80;;;25.20;99.90;;;27.89;49.19;99627.00;5042863;27;130759;-79
2022/07/01 06:10:21;;;;;;;9.57;4.80;;;25.50;99.90;;;27.92;48.10;99628.91;5041055;27;130160;-78
2022/07/01 06:12:50;;;;;;;5.60;3.85;;;25.40;99.90;;;28.04;48.85;99629.53;5041619;27;122185;-80
2022/07/01 06:15:18;;;;;;;6.10;4.07;;;25.60;99.90;;;28.21;48.60;99633.97;5043009;27;122179;-80
2022/07/01 06:17:49;;;;;;;5.35;3.90;;;25.80;99.90;;;28.29;46.66;99632.59;5044032;27;128688;-80
2022/07/01 06:20:17;;;;;;;8.35;3.90;;;25.60;99.90;;;28.28;46.68;99633.84;5042043;27;129455;-77
2022/07/01 06:22:46;;;;;;;7.32;3.83;;;25.70;99.90;;;28.39;46.63;99638.41;5042633;27;120403;-79
2022/07/01 06:25:15;;;;;;;10.20;4.30;;;25.90;99.90;;;28.40;46.36;99629.59;5042414;27;119038;-81
2022/07/01 06:27:45;;;;;;;8.73;4.60;;;25.80;96.50;;;28.38;45.04;99620.09;5042246;27;130730;-79
2022/07/01 06:30:14;;;;;;;10.20;4.65;;;25.70;96.40;;;28.39;45.91;99621.66;5042201;27;129430;-79
2022/07/01 06:32:43;;;;;;;7.35;3.80;;;25.60;99.90;;;28.46;46.26;99610.34;5040855;27;119351;-80
2022/07/01 06:35:13;;;;;;;7.03;3.83;;;25.90;99.90;;;28.66;45.94;99608.34;5042374;27;119135;-80
2022/07/01 06:37:41;;;;;;;10.70;4.60;;;26.10;99.90;;;28.86;44.68;99611.09;5040888;27;130902;-80
2022/07/01 06:40:11;;;;;;;8.68;3.97;;;26.30;96.60;;;28.85;45.52;99609.50;5041697;27;129623;-80
2022/07/01 06:42:40;;;;;;;5.78;4.00;;;26.20;99.90;;;28.82;44.16;99599.19;5044423;27;118367;-80
2022/07/01 06:45:09;;;;;;;8.45;4.38;;;26.30;92.30;;;28.79;44.50;99599.28;5041480;27;119697;-80
2022/07/01 06:47:38;;;;;;;6.53;4.18;;;26.20;97.70;;;28.80;46.17;99601.66;5043347;27;129127;-81
2022/07/01 06:50:08;;;;;;;8.73;4.50;;;26.20;99.90;;;28.71;45.65;99603.47;5043385;27;129217;-81
2022/07/01 06:52:38;;;;;;;9.77;4.53;;;26.30;96.60;;;28.81;44.74;99597.66;5046068;27;119572;-81
2022/07/01 06:55:07;;;;;;;7.05;4.20;;;26.10;96.50;;;28.84;44.11;99596.78;5042841;27;119454;-79
2022/07/01 06:57:36;;;;;;;8.50;4.20;;;26.10;92.60;;;28.90;45.49;99597.03;5041757;27;129936;-79
2022/07/01 07:00:06;;;;;;;7.05;4.32;;;26.40;99.90;;;29.16;45.36;99600.03;5040973;27;129891;-77
2022/07/01 07:02:35;;;;;;;9.95;4.10;;;26.70;96.70;;;29.38;44.29;99601.06;5040255;27;121707;-78
2022/07/01 07:05:03;;;;;;;10.07;3.95;;;26.90;88.30;;;29.52;43.39;99590.75;5046791;27;121471;-79
2022/07/01 07:07:32;;;;;;;12.15;4.50;;;26.90;75.40;;;29.45;43.73;99593.72;5045995;27;129118;-77
2022/07/01 07:10:03;;;;;;;10.65;4.82;;;26.80;81.10;;;29.46;44.65;99595.31;5042460;27;129420;-78
2022/07/01 07:12:31;;;;;;;7.28;4.20;;;27.00;93.20;;;29.40;42.82;99598.66;5042939;27;119022;-81
2022/07/01 07:15:00;;;;;;;6.90;3.75;;;26.90;65.60;;;29.40;43.05;99593.06;5061582;27;119565;-82
2022/07/01 07:17:29;;;;;;;8.30;4.72;;;26.80;64.70;;;29.37;43.32;99593.94;5028085;27;128714;-79
2022/07/01 07:19:58;;;;;;;5.47;3.80;;;26.70;74.00;;;29.48;44.13;99581.69;5041919;27;129300;-77
2022/07/01 07:22:26;;;;;;;8.27;4.68;;;27.00;74.40;;;29.49;43.40;99583.25;5041765;27;119492;-77
2022/07/01 07:24:55;;;;;;;8.00;3.95;;;27.00;68.80;;;29.80;43.14;99588.47;5043123;27;119356;-76
2022/07/01 07:27:25;;;;;;;8.50;4.40;;;27.40;71.60;;;30.02;42.23;99581.03;5039356;27;130360;-72
2022/07/01 07:29:53;;;;;;;13.68;4.30;;;27.60;43.60;;;30.23;41.82;99584.44;5040701;27;130273;-76
2022/07/01 07:32:22;;;;;;;9.38;4.25;;;27.60;49.10;;;30.08;41.06;99584.09;5041674;27;119777;-78
2022/07/01 07:34:50;;;;;;;7.13;4.53;;;27.50;43.50;;;30.34;40.74;99587.72;5042625;27;119123;-78
2022/07/01 07:37:19;;;;;;;10.80;4.60;;;27.60;37.90;;;30.21;40.67;99581.31;5025891;27;129946;-79
2022/07/01 07:39:48;;;;;;;8.68;4.50;;;27.30;43.40;;;29.64;40.71;99590.03;5041557;27;130689;-77
2022/07/01 07:42:17;;;;;;;10.50;4.43;;;26.30;53.40;;;29.26;42.01;99598.22;5045501;27;119271;-81
2022/07/01 07:44:47;;;;;;;8.68;4.50;;;26.10;62.00;;;29.20;41.54;99595.16;5045877;27;119344;-80
2022/07/01 07:47:16;;;;;;;8.40;4.32;;;26.10;55.80;;;29.30;41.67;99602.50;5040611;27;129960;-80
2022/07/01 07:49:45;;;;;;;7.65;4.10;;;26.30;52.10;;;29.77;40.53;99598.47;5043685;27;128540;-79
2022/07/01 07:52:13;;;;;;;9.93;4.65;;;26.70;42.90;;;30.20;41.45;99602.13;5039703;27;123087;-78
2022/07/01 07:54:42;;;;;;;8.50;4.63;;;27.30;51.10;;;30.37;40.39;99600.84;5043099;27;120809;-78
2022/07/01 07:57:11;;;;;;;9.25;5.10;;;27.30;43.40;;;30.54;39.16;99609.16;5041518;27;129037;-79
2022/07/01 07:59:39;;;;;;;10.18;4.75;;;27.40;28.70;;;30.60;39.32;99598.97;5042852;27;128752;-80
2022/07/01 08:02:10;;;;;;;12.98;4.80;;;27.40;23.80;;;30.55;39.73;99593.94;5038746;27;119481;-82
2022/07/01 08:04:39;;;;;;;7.50;4.55;;;27.40;30.70;;;31.13;38.78;99604.91;5025916;27;119187;-79
2022/07/01 08:07:07;;;;;;;9.98;4.57;;;27.90;22.50;;;31.41;38.70;99605.22;5042270;27;129337;-81
2022/07/01 08:09:36;;;;;;;8.82;4.90;;;28.10;21.60;;;31.16;36.93;99612.44;5041530;27;129010;-81
2022/07/01 08:12:06;;;;;;;8.27;5.10;;;27.40;11.20;;;31.05;38.24;99609.19;5040473;27;119576;-83
2022/07/01 08:14:35;;;;;;;9.05;4.82;;;27.60;20.50;;;30.86;38.55;99610.97;5026074;27;118475;-82
2022/07/01 08:17:04;;;;;;;9.13;4.60;;;27.70;17.30;;;30.98;37.45;99609.44;5039554;27;130581;-79
2022/07/01 08:19:34;;;;;;;10.93;5.10;;;27.90;7.60;;;30.55;39.56;99599.53;5042481;27;129088;-77
2022/07/01 08:22:03;;;;;;;8.45;5.63;;;27.80;21.70;;;29.38;43.75;99594.72;5040270;27;119367;-77
2022/07/01 08:24:32;;;;;;;10.15;5.50;;;27.20;54.90;;;28.68;44.96;99600.31;5040762;27;119409;-80
2022/07/01 08:27:01;;;;;;;9.98;5.40;;;26.80;57.80;;;28.68;45.18;99608.69;5039914;27;130225;-77
2022/07/01 08:29:30;;;;;;;8.75;5.88;;;26.90;55.80;;;28.91;44.63;99598.59;5040147;27;129286;-80
2022/07/01 08:31:59;;;;;;;10.65;5.93;;;27.10;43.20;;;28.93;45.44;99607.31;5041705;27;118556;-78
2022/07/01 08:34:27;;;;;;;9.70;5.47;;;27.20;67.10;;;28.80;44.43;99604.44;5043096;27;119887;-79
2022/07/01 08:36:57;;;;;;;8.52;5.68;;;27.10;43.20;;;29.13;43.92;99603.69;5025607;27;129665;-77
2022/07/01 08:39:26;;;;;;;7.72;4.82;;;27.40;43.40;;;29.45;41.88;99607.72;5042386;27;130144;-76
2022/07/01 08:41:56;;;;;;;11.65;5.43;;;27.50;21.70;;;28.81;43.27;99602.44;5040743;27;121584;-74
2022/07/01 08:44:25;;;;;;;6.63;5.00;;;27.20;35.10;;;28.99;43.83;99608.38;5042117;27;121408;-77
2022/07/01 08:46:54;;;;;;;8.32;4.97;;;27.30;37.60;;;28.89;43.34;99609.44;5038717;27;129710;-76
2022/07/01 08:49:24;;;;;;;6.68;5.28;;;27.20;29.30;;;28.49;44.30;99603.91;5040563;27;129384;-79
2022/07/01 08:51:52;;;;;;;6.53;5.05;;;26.80;44.60;;;28.48;43.26;99611.47;5039320;27;119515;-76
2022/07/01 08:54:22;;;;;;;6.75;5.03;;;26.80;28.80;;;28.80;43.40;99612.03;5039760;27;119190;-78
2022/07/01 08:56:51;;;;;;;7.68;5.10;;;27.00;43.10;;;28.77;42.21;99612.91;5039663;27;130277;-79
2022/07/01 08:59:26;;;;;;;5.93;4.78;;;27.00;21.30;;;28.77;42.70;99601.75;5043172;27;130076;-80
2022/07/01 09:02:01;;;;;;;6.22;4.82;;;26.90;33.60;;;29.26;47.00;99603.78;5049736;27;119988;-76
2022/07/01 09:04:30;;;;;;;11.70;5.10;;;27.20;84.60;;;30.04;42.13;99603.75;5061966;27;119115;-78
2022/07/01 09:07:06;;;;;;;5.90;4.85;;;27.70;18.20;;;30.75;39.55;99602.13;5060350;27;129469;-80
2022/07/01 09:09:38;;;;;;;5.60;4.60;;;28.00;17.10;;;30.46;37.80;99603.78;5063208;27;130019;-76
2022/07/01 09:12:09;;;;;;;6.88;4.80;;;27.70;1.00;;;29.83;40.19;99607.16;5064564;27;119430;-77
2022/07/01 09:14:39;;;;;;;5.80;4.45;;;27.60;14.00;;;29.25;42.62;99605.81;5066001;27;118307;-81
2022/07/01 09:17:08;;;;;;;7.55;4.75;;;27.40;27.60;;;29.10;42.35;99612.94;5061911;27;130959;-77
2022/07/01 09:19:39;;;;;;;9.23;5.07;;;27.30;20.70;;;29.16;43.80;99608.41;5063176;27;129403;-81
2022/07/01 09:22:08;;;;;;;5.72;4.65;;;27.40;32.30;;;29.02;42.79;99617.91;5067320;27;119051;-80
2022/07/01 09:24:41;;;;;;;8.50;4.80;;;27.20;26.70;;;28.69;45.61;99607.47;5066433;27;118966;-76
2022/07/01 09:27:13;;;;;;;8.68;5.38;;;27.00;43.10;;;28.67;45.99;99609.91;5062886;27;129589;-77
2022/07/01 09:29:45;;;;;;;6.82;5.43;;;27.00;56.00;;;29.11;43.76;99603.31;5063302;27;129798;-78
2022/07/01 09:32:18;;;;;;;16.95;8.05;;;27.30;36.80;;;29.79;43.08;99600.84;5064068;27;121304;-75
2022/07/01 09:34:48;;;;;;;5.60;4.78;;;27.40;43.40;;;29.94;41.88;99604.84;5059582;27;121727;-76
2022/07/01 09:37:19;;;;;;;8.02;5.43;;;27.80;26.30;;;30.10;40.50;99601.97;5062842;27;129939;-78
2022/07/01 09:39:52;;;;;;;6.45;4.60;;;28.00;6.30;;;29.89;41.98;99599.81;5063156;27;129496;-78
2022/07/01 09:42:23;;;;;;;5.97;4.70;;;28.20;16.00;;;29.87;40.49;99597.44;5062820;27;119593;-75
2022/07/01 09:44:56;;;;;;;11.18;5.82;;;28.00;2.60;;;29.91;40.62;99588.94;5064930;27;119106;-78
2022/07/01 09:47:26;;;;;;;7.97;4.85;;;28.10;15.20;;;30.76;40.73;99593.28;5078220;27;130532;-79
2022/07/01 09:49:56;;;;;;;6.35;4.35;;;28.70;6.00;;;30.70;38.71;99589.47;5062979;27;129450;-73
2022/07/01 09:52:25;;;;;;;5.97;4.50;;;28.70;1.00;;;31.03;37.17;99588.47;5062746;27;119892;-73
2022/07/01 09:54:55;;;;;;;5.05;3.78;;;29.10;1.00;;;31.55;35.99;99578.72;5064684;27;119526;-74
2022/07/01 09:57:24;;;;;;;5.97;4.65;;;29.20;1.00;;;31.45;36.83;99583.44;5063289;27;128294;-73
2022/07/01 09:59:53;;;;;;;9.10;5.00;;;29.20;1.00;;;31.71;36.80;99580.56;5062303;27;129981;-77
2022/07/01 10:02:24;;;;;;;8.77;5.53;;;29.40;1.00;;;32.42;37.28;99568.75;5062622;27;119335;-76
2022/07/01 10:04:59;;;;;;;6.47;4.45;;;29.70;1.00;;;32.03;35.73;99573.03;5062798;27;119875;-78
2022/07/01 10:07:43;;;;;;;5.68;4.80;;;29.50;1.00;;;30.79;37.54;99575.59;5062742;27;130260;-76
2022/07/01 10:10:35;;;;;;;6.68;4.10;;;28.60;1.00;;;30.72;36.99;99581.41;5061508;27;129528;-79
2022/07/01 10:13:05;;;;;;;7.38;4.63;;;28.70;1.00;;;31.11;36.57;99565.34;5065167;27;118340;-77
2022/07/01 10:15:35;;;;;;;7.13;4.13;;;28.10;1.00;;;31.59;37.84;99571.00;5062542;27;119522;-76
2022/07/01 10:18:04;;;;;;;6.35;4.78;;;28.50;1.00;;;30.21;40.16;99570.13;5059387;27;130510;-77
2022/07/01 10:20:32;;;;;;;5.57;4.30;;;28.40;1.00;;;29.73;40.89;99575.41;5061435;27;129682;-79
2022/07/01 10:23:07;;;;;;;5.30;4.68;;;28.00;1.00;;;30.25;40.38;99576.41;5063262;27;121123;-80
2022/07/01 10:25:44;;;;;;;5.83;4.23;;;28.30;1.00;;;30.68;39.54;99580.72;5062191;27;121376;-81
2022/07/01 10:28:27;;;;;;;5.63;4.70;;;28.70;1.00;;;30.31;39.09;99574.63;5062058;27;129940;-80
2022/07/01 10:31:09;;;;;;;6.70;4.30;;;28.60;1.00;;;30.73;38.63;99565.38;5064156;27;129093;-74